AirNav   Everest Fuels
 
 464 users online  

6J0 Lexington County Airport
Pelion, South Carolina, USA

GOING TO PELION?


Instrument Procedures

NOTE: All procedures below are presented as PDF files. If you need a reader for these files, you should download the free Adobe Reader.

NOT FOR NAVIGATION. Please procure official charts for flight.
FAA instrument procedures published for use from 01 December 2022 at 0901Z to 29 December 2022 at 0900z.

 
IAPs - Instrument Approach Procedures
RNAV (GPS) RWY 18   download (205KB)
RNAV (GPS) RWY 36   download (208KB)
VOR-A   download (193KB)
NOTE: Special Take-Off Minimums/Departure Procedures apply   download (141KB)

Other nearby airports with instrument procedures:

KCAE - Columbia Metro Airport (11 nm NE)
KXNO - North Air Force Auxiliary Field (14 nm SE)
KCUB - Jim Hamilton L B Owens Airport (16 nm NE)
KMMT - Mc Entire Joint National Guard Base (23 nm E)
KAIK - Aiken Regional Airport (24 nm W)
 
Loc | Ops | Rwys | IFR | FBO | Links
Com | Nav | Svcs | Stats | Notes
Area around 6J0 (Lexington County Airport)
 
Road maps at: MapQuest Bing Google
 
Aerial photo
WARNING: Photo may not be current or correct
Aerial photo of 6J0 (Lexington County Airport)
Photo by Jacky Shoulders
Photo taken 02-Oct-2011
looking east.

Do you have a better or more recent aerial photo of Lexington County Airport that you would like to share? If so, please send us your photo.

 
Sectional chart

 
Airport distance calculator
Flying to Lexington County Airport? Find the distance to fly.

From to 6J0

Sunrise and sunset
Times for 01-Dec-2022
 Local
(UTC-5)
 Zulu
(UTC)
Morning civil twilight06:4611:46
Sunrise07:1312:13
Sunset17:1522:15
Evening civil twilight17:4322:43

Current date and time
Zulu (UTC)  01-Dec-2022 08:32:07
Local (UTC-5)  01-Dec-2022 03:32:07
 
METAR
KCAE 
11nm NE 
010756Z 00000KT 10SM CLR 06/M02 A3028 RMK AO2 SLP252 T00561022
KXNO 
14nm SE 
010755Z AUTO 00000KT 10SM CLR 05/M01 A3028 RMK AO2 SLP257 T00461006 $
KCUB 
16nm NE 
010753Z AUTO 34003KT 10SM CLR 04/M03 A3029 RMK AO2 SLP256 T00441033
TAF
KCAE 
11nm NE 
010520Z 0106/0206 35004KT P6SM SKC FM011500 05006KT P6SM SCT250
KCUB 
16nm NE 
010520Z 0106/0206 VRB03KT P6SM SKC FM011500 05005KT P6SM SCT250
NOTAMs
Click for the latest NOTAMs
NOTAMs are issued by the DoD/FAA and will open in a separate window not controlled by AirNav.

 

 
 

FBO, Fuel Providers, and Aircraft Ground Support

  
 Business Name 
 
 Contact 
 
 Services / Description 
 
Fuel Prices
 
Comments
  
Lexington County Airport 803-785-8100
no information available

If you are affiliated with Lexington County Airport and would like to show here your services, contact info, web link, logo, and more, click here
100LL
SS $6.46 
 Updated 30-Nov-2022
 
   write
SS=Self service
Update Fuel Prices
 

Would you like to see your business listed on this page?

 If your business provides an interesting product or service to pilots, flight crews, aircraft, or users of the Lexington County Airport, you should consider listing it here.  To start the listing process, click on the button below
 
Add a business
 

Other Pages about Lexington County Airport

www.lex-co.com/...
 
Update a link
 
Copyright © AirNav, LLC. All rights reserved. Privacy Policy  Contact